Map Display - EGLL to OOMS
(last flight recorded 14-08-2020, 16:56 - Andrew Siddall)

Aircraft Weights    Units : Maximums
Passengers :    
Cargo : kg kg
Suggested Fuel Load : kg ? kg
 
     
 
Dry Operating : kg    
Total Payload : 0 kg 0 kg
 
Take Off : 82,778 kg kg
 
Expected Landing : 19,976 kg ? kg

Dale Moore,  B744 ,  G-BNLC,  .

Route Distance Previous
Flights
Average
Duration
Average
Fuel Flow
Average
Fuel Use
EGLL - Heathrow, London
OOMS - Seeb Intl, Muscat, Oman
3,153 nm 2 06:54 9,080 kg/h 62,802 kg

Current weather :-
2020/08/14 18:09
TAF EGLL 141700Z 1418/1524 VRB03KT 9999 BKN007 PROB30
TEMPO 1418/1518 3000 +TSRA PROB40 1422/1509 BKN004
TEMPO 1512/1518 BKN018
2020/08/14 18:03
TAF TAF OOMS 141700Z 1418/1524 22007KT 8000 NSC PROB30
TEMPO 1422/1504 4000 BR SCT010
BECMG 1506/1508 05012KT
BECMG 1517/1519 VRB02KT

Back to Virtual Airline